createdAt,value
2023-02-07T07:21:43.730Z,15.55
2023-02-07T07:24:35.923Z,17.65
2023-02-07T07:27:20.253Z,16.00
2023-02-07T07:29:48.310Z,21.25
2023-02-07T07:35:06.666Z,20.73
2023-02-07T07:37:40.845Z,22.63
2023-02-07T07:40:12.636Z,20.48
2023-02-07T07:42:40.720Z,21.35
2023-02-07T07:45:14.427Z,22.30
2023-02-07T07:47:42.796Z,21.70
2023-02-07T07:50:11.370Z,18.77
2023-02-07T07:52:43.069Z,21.20
2023-02-07T07:55:12.022Z,21.90
2023-02-07T07:57:41.630Z,22.02
2023-02-07T08:00:12.136Z,20.77
2023-02-07T08:02:40.286Z,19.98
2023-02-07T08:05:08.802Z,21.30
2023-02-07T08:07:37.251Z,19.50
2023-02-07T08:10:08.548Z,20.65
2023-02-07T08:12:37.270Z,20.92
2023-02-07T08:15:07.759Z,20.20
2023-02-07T08:17:36.334Z,19.45
2023-02-07T08:20:05.845Z,20.60
2023-02-07T08:22:35.173Z,20.15
2023-02-07T08:25:07.061Z,20.20
2023-02-07T08:27:37.157Z,19.27
2023-02-07T08:30:05.979Z,19.88
2023-02-07T08:32:34.896Z,19.57
2023-02-07T08:35:03.266Z,19.35
2023-02-07T08:37:31.355Z,20.38
2023-02-07T08:40:01.132Z,18.92
2023-02-07T08:44:58.497Z,18.52
2023-02-07T08:47:27.194Z,18.45
2023-02-07T08:49:55.678Z,18.93
2023-02-07T08:52:23.930Z,19.55
2023-02-07T08:54:55.603Z,19.55
2023-02-07T08:57:25.841Z,19.33
2023-02-07T08:59:54.285Z,19.38
2023-02-07T09:02:25.892Z,17.73
2023-02-07T09:04:54.102Z,17.90
2023-02-07T09:07:23.748Z,18.40
2023-02-07T09:09:52.211Z,17.55
2023-02-07T09:12:21.382Z,15.88
2023-02-07T09:14:49.419Z,16.58
2023-02-07T09:17:17.981Z,16.17
2023-02-07T09:19:51.939Z,17.27
2023-02-07T09:22:20.554Z,15.55
2023-02-07T09:24:49.354Z,16.73
2023-02-07T09:27:17.482Z,16.70
2023-02-07T09:29:46.373Z,16.20
2023-02-07T09:32:14.537Z,17.02
2023-02-07T09:34:44.361Z,16.77
2023-02-07T09:37:14.300Z,16.23
2023-02-07T09:39:44.918Z,14.90
2023-02-07T09:45:19.332Z,13.45
2023-02-07T09:47:53.538Z,14.25
2023-02-07T09:50:25.833Z,14.20
2023-02-07T09:53:00.209Z,13.93
2023-02-07T09:55:42.655Z,14.02
2023-02-07T09:58:16.047Z,13.15
2023-02-07T10:00:48.316Z,12.82
2023-02-07T10:03:19.928Z,13.18
2023-02-07T10:08:51.352Z,12.40
2023-02-07T10:11:50.243Z,11.27
2023-02-07T10:14:58.380Z,10.95
2023-02-07T10:18:09.184Z,11.20
2023-02-07T10:21:06.193Z,9.93
2023-02-07T10:23:50.863Z,11.10
2023-02-07T10:26:34.266Z,8.98
2023-02-07T10:29:38.704Z,8.98
